Time;durP1;ratioP1;P1;durP2;ratioP2;P2;SDS_P1;SDS_P2;PMS_P1;PMS_P2;Temp;Humidity;BMP_temperature;BMP_pressure;BME280_temperature;BME280_humidity;BME280_pressure;Samples;Min_cycle;Max_cycle;Signal;HPM_P1;HPM_P2
2021/06/19 00:00:11;;;;;;;11.45;5.53;;;;;;;17.32;100.00;93165.28;2106241;28;20468;-88
2021/06/19 00:01:12;;;;;;;6.97;4.68;;;;;;;17.29;100.00;93165.47;2107040;28;20039;-88
2021/06/19 00:02:12;;;;;;;10.98;5.60;;;;;;;17.30;100.00;93159.63;2111114;28;20380;-86
2021/06/19 00:03:14;;;;;;;7.95;5.30;;;;;;;17.24;100.00;93157.97;2097463;28;20028;-88
2021/06/19 00:04:14;;;;;;;9.52;5.32;;;;;;;17.18;100.00;93162.53;2097920;28;20495;-89
2021/06/19 00:05:16;;;;;;;9.15;5.65;;;;;;;17.28;100.00;93170.13;2097604;28;20041;-86
2021/06/19 00:06:16;;;;;;;10.65;5.60;;;;;;;17.27;100.00;93165.19;2106333;28;20107;-89
2021/06/19 00:07:17;;;;;;;11.02;5.18;;;;;;;17.36;100.00;93170.53;2100009;28;20184;-86
2021/06/19 00:08:18;;;;;;;9.70;5.63;;;;;;;17.39;100.00;93168.88;2095158;28;20032;-89
2021/06/19 00:09:19;;;;;;;7.72;5.10;;;;;;;17.36;100.00;93170.53;2097459;28;20028;-88
2021/06/19 00:10:19;;;;;;;10.27;5.65;;;;;;;17.25;100.00;93170.28;2088878;28;20493;-88
2021/06/19 00:11:20;;;;;;;7.63;4.95;;;;;;;17.25;100.00;93170.28;2095259;28;20124;-87
2021/06/19 00:12:21;;;;;;;7.32;5.07;;;;;;;17.22;100.00;93171.97;2105994;28;20032;-88
2021/06/19 00:13:22;;;;;;;7.90;4.97;;;;;;;17.17;100.00;93167.19;2101754;28;20040;-87
2021/06/19 00:14:22;;;;;;;8.82;5.57;;;;;;;17.17;100.00;93169.88;2103644;28;20031;-87
2021/06/19 00:15:24;;;;;;;9.18;5.57;;;;;;;17.13;100.00;93165.84;2102020;28;20054;-90
2021/06/19 00:16:25;;;;;;;12.40;5.03;;;;;;;17.19;100.00;93172.13;2106119;28;20091;-89
2021/06/19 00:17:26;;;;;;;7.55;5.18;;;;;;;17.23;100.00;93168.03;2096288;28;20023;-87
2021/06/19 00:18:26;;;;;;;8.45;5.35;;;;;;;17.21;100.00;93165.06;2093922;28;20029;-88
2021/06/19 00:19:27;;;;;;;9.20;5.10;;;;;;;17.22;100.00;93168.50;2096217;28;20027;-87
2021/06/19 00:20:29;;;;;;;9.38;5.50;;;;;;;17.26;100.00;93166.38;2097710;28;20492;-90
2021/06/19 00:21:29;;;;;;;6.63;5.28;;;;;;;17.26;100.00;93166.38;2106153;28;20489;-87
2021/06/19 00:22:30;;;;;;;8.23;5.80;;;;;;;17.23;100.00;93159.94;2106117;28;20062;-88
2021/06/19 00:23:31;;;;;;;7.35;5.03;;;;;;;17.25;100.00;93164.88;2097092;28;20025;-88
2021/06/19 00:24:37;;;;;;;6.55;5.10;;;;;;;17.20;100.00;93163.53;2096712;28;20052;-87
2021/06/19 00:25:38;;;;;;;9.57;5.57;;;;;;;17.24;100.00;93160.69;2097859;28;20035;-85
2021/06/19 00:26:39;;;;;;;7.10;5.40;;;;;;;17.20;100.00;93157.41;2097540;28;20024;-88
2021/06/19 00:27:40;;;;;;;11.23;5.68;;;;;;;17.20;100.00;93152.00;2097755;28;20028;-88
2021/06/19 00:28:41;;;;;;;9.18;5.47;;;;;;;17.21;100.00;93153.47;2098573;28;20515;-87
2021/06/19 00:29:41;;;;;;;5.88;5.22;;;;;;;17.17;100.00;93152.94;2089882;28;20040;-87
2021/06/19 00:30:42;;;;;;;7.88;5.05;;;;;;;17.21;100.00;93156.19;2105974;28;20051;-88
2021/06/19 00:31:44;;;;;;;8.35;5.15;;;;;;;17.21;100.00;93158.88;2097738;28;20035;-88
2021/06/19 00:32:45;;;;;;;6.40;5.18;;;;;;;17.20;100.00;93157.41;2097723;28;20020;-89
2021/06/19 00:33:45;;;;;;;8.30;5.28;;;;;;;17.21;100.00;93158.88;2097376;28;20451;-89
2021/06/19 00:34:46;;;;;;;7.95;5.68;;;;;;;17.21;100.00;93162.34;2097149;28;20032;-89
2021/06/19 00:35:47;;;;;;;9.50;5.68;;;;;;;17.19;100.00;93164.75;2096359;28;20047;-87
2021/06/19 00:36:48;;;;;;;10.85;5.45;;;;;;;17.18;100.00;93163.25;2103018;28;20032;-88
2021/06/19 00:37:49;;;;;;;8.48;5.20;;;;;;;17.19;100.00;93167.47;2102370;28;20020;-89
2021/06/19 00:38:49;;;;;;;17.05;6.05;;;;;;;17.20;100.00;93165.50;2088024;28;20407;-87
2021/06/19 00:39:50;;;;;;;8.93;5.55;;;;;;;17.20;100.00;93170.91;2097338;28;20033;-88
2021/06/19 00:40:51;;;;;;;12.75;5.68;;;;;;;17.13;100.00;93168.53;2097377;28;20031;-91
2021/06/19 00:41:52;;;;;;;9.10;5.63;;;;;;;17.09;100.00;93169.44;2089268;28;20021;-88
2021/06/19 00:43:01;;;;;;;6.70;4.95;;;;;;;17.20;100.00;93171.66;2089903;28;20020;-87
2021/06/19 00:44:14;;;;;;;9.88;5.28;;;;;;;17.21;100.00;93167.00;2108486;27;20409;-89
2021/06/19 00:45:14;;;;;;;9.88;5.43;;;;;;;17.21;100.00;93161.59;2109699;28;20399;-89
2021/06/19 00:46:16;;;;;;;9.48;5.43;;;;;;;17.18;100.00;93171.38;2097979;28;20031;-88
2021/06/19 00:47:16;;;;;;;10.07;5.63;;;;;;;17.14;100.00;93170.03;2084888;28;20032;-88
2021/06/19 00:48:17;;;;;;;7.03;5.82;;;;;;;17.16;100.00;93167.63;2092962;28;20059;-87
2021/06/19 00:49:18;;;;;;;8.32;5.47;;;;;;;17.13;100.00;93169.28;2106093;28;20020;-86
2021/06/19 00:50:20;;;;;;;9.85;5.85;;;;;;;17.16;100.00;93164.91;2094946;28;20056;-87
2021/06/19 00:51:21;;;;;;;7.43;5.90;;;;;;;17.21;100.00;93175.09;2097129;28;20048;-88
2021/06/19 00:52:22;;;;;;;8.95;5.90;;;;;;;17.25;100.00;93172.97;2105914;28;20024;-87
2021/06/19 00:53:22;;;;;;;7.25;5.30;;;;;;;17.18;100.00;93170.63;2113544;28;20449;-88
2021/06/19 00:54:23;;;;;;;12.20;5.30;;;;;;;17.18;100.00;93174.06;2122276;27;20085;-90
2021/06/19 00:55:24;;;;;;;6.45;5.32;;;;;;;17.13;100.00;93177.41;2114010;28;20024;-88
2021/06/19 00:56:25;;;;;;;10.07;5.30;;;;;;;17.08;100.00;93170.66;2105481;28;20016;-87
2021/06/19 00:57:26;;;;;;;6.68;5.00;;;;;;;17.08;100.00;93172.63;2113621;28;20653;-86
2021/06/19 00:58:27;;;;;;;10.18;5.80;;;;;;;17.13;100.00;93177.41;2105593;28;20027;-88
2021/06/19 00:59:29;;;;;;;9.73;5.38;;;;;;;17.15;100.00;93166.88;2105143;28;20034;-87
2021/06/19 01:00:30;;;;;;;8.10;5.45;;;;;;;17.16;100.00;93171.06;2103079;28;20062;-89
2021/06/19 01:01:32;;;;;;;7.10;5.45;;;;;;;17.23;100.00;93167.28;2097070;28;20020;-89
2021/06/19 01:02:33;;;;;;;10.10;5.53;;;;;;;17.23;100.00;93165.34;2105970;28;20051;-87
2021/06/19 01:03:34;;;;;;;6.35;5.20;;;;;;;17.23;100.00;93168.03;2105426;28;20031;-87
2021/06/19 01:04:35;;;;;;;7.97;5.35;;;;;;;17.18;100.00;93162.53;2088878;28;20021;-88
2021/06/19 01:05:36;;;;;;;6.85;5.88;;;;;;;17.19;100.00;93156.66;2096372;28;20076;-87
2021/06/19 01:06:37;;;;;;;9.00;5.35;;;;;;;17.17;100.00;93156.38;2112708;28;20027;-90
2021/06/19 01:07:37;;;;;;;6.70;5.13;;;;;;;17.17;100.00;93155.63;2097624;28;20020;-89
2021/06/19 01:08:38;;;;;;;7.13;6.00;;;;;;;17.14;100.00;93161.94;2096962;28;20032;-89
2021/06/19 01:09:39;;;;;;;6.53;5.68;;;;;;;17.08;100.00;93165.25;2097133;28;20025;-88
2021/06/19 01:10:39;;;;;;;7.35;5.82;;;;;;;17.02;100.00;93163.63;2105376;28;20424;-89
2021/06/19 01:11:40;;;;;;;9.68;5.97;;;;;;;17.05;100.00;93168.13;2113889;28;20113;-88
2021/06/19 01:12:44;;;;;;;7.60;5.32;;;;;;;17.01;100.00;93164.81;2096948;28;20029;-88
2021/06/19 01:13:44;;;;;;;6.43;5.68;;;;;;;17.00;100.00;93169.47;2095183;28;20028;-86
2021/06/19 01:14:46;;;;;;;7.88;5.25;;;;;;;16.99;100.00;93159.13;2105228;28;20100;-90
2021/06/19 01:15:47;;;;;;;8.70;5.68;;;;;;;16.87;100.00;93166.22;2105571;28;20128;-87
2021/06/19 01:16:49;;;;;;;7.75;5.78;;;;;;;16.83;100.00;93152.88;2097056;28;20497;-89
2021/06/19 01:17:50;;;;;;;7.32;5.82;;;;;;;16.86;100.00;93157.38;2094637;28;20024;-88
2021/06/19 01:18:52;;;;;;;7.30;5.70;;;;;;;16.79;100.00;93160.38;2100314;28;20109;-88
2021/06/19 01:20:05;;;;;;;5.90;5.28;;;;;;;16.85;100.00;93163.97;2093506;28;20035;-90
2021/06/19 01:21:32;;;;;;;5.53;5.05;;;;;;;16.83;100.00;93168.34;2093525;28;20481;-91
2021/06/19 01:22:35;;;;;;;9.60;5.60;;;;;;;16.77;100.00;93160.09;2095997;28;20035;-89
2021/06/19 01:23:36;;;;;;;8.02;5.28;;;;;;;16.76;100.00;93168.63;2092262;28;20299;-90
2021/06/19 01:24:37;;;;;;;5.80;5.25;;;;;;;16.74;100.00;93166.41;2094162;28;20471;-88
2021/06/19 01:25:38;;;;;;;9.50;6.03;;;;;;;16.75;100.00;93165.19;2105103;28;20058;-88
2021/06/19 01:26:39;;;;;;;6.38;4.80;;;;;;;16.69;100.00;93166.25;2104962;28;20024;-89
2021/06/19 01:27:39;;;;;;;6.60;5.47;;;;;;;16.69;100.00;93166.25;2096644;28;20039;-89
2021/06/19 01:28:42;;;;;;;8.32;5.35;;;;;;;16.67;100.00;93165.94;2088392;28;20028;-88
2021/06/19 01:29:43;;;;;;;8.00;5.60;;;;;;;16.61;100.00;93171.94;2105319;28;20060;-89
2021/06/19 01:30:44;;;;;;;9.13;5.70;;;;;;;16.65;100.00;93174.50;2105273;28;20059;-87
2021/06/19 01:31:44;;;;;;;8.07;5.75;;;;;;;16.59;100.00;93171.66;2105349;28;20031;-90
2021/06/19 01:32:46;;;;;;;6.25;5.65;;;;;;;16.55;100.00;93171.06;2096652;28;20017;-89
2021/06/19 01:33:48;;;;;;;5.97;5.40;;;;;;;16.46;100.00;93173.78;2096699;28;20366;-88
2021/06/19 01:34:49;;;;;;;7.25;5.40;;;;;;;16.42;100.00;93170.50;2094650;28;20032;-90
2021/06/19 01:35:50;;;;;;;6.43;5.70;;;;;;;16.46;100.00;93162.22;2113277;28;20342;-88
2021/06/19 01:36:51;;;;;;;6.80;6.10;;;;;;;16.44;100.00;93168.06;2122078;27;20047;-89
2021/06/19 01:37:55;;;;;;;6.75;5.82;;;;;;;16.51;100.00;93158.94;2105219;28;20531;-89
2021/06/19 01:38:56;;;;;;;6.20;5.60;;;;;;;16.55;100.00;93165.66;2098085;28;20559;-89
2021/06/19 01:40:11;;;;;;;8.13;6.20;;;;;;;16.52;100.00;93163.88;2113541;28;20055;-89
2021/06/19 01:41:21;;;;;;;10.50;6.28;;;;;;;16.51;100.00;93170.47;2107337;28;20024;-89
2021/06/19 01:42:21;;;;;;;9.18;5.80;;;;;;;16.45;100.00;93169.56;2104402;28;20036;-88
2021/06/19 01:43:22;;;;;;;7.30;5.90;;;;;;;16.45;100.00;93168.81;2096850;28;20039;-87
2021/06/19 01:44:23;;;;;;;6.70;5.50;;;;;;;16.48;100.00;93165.22;2096790;28;20012;-88
2021/06/19 01:45:27;;;;;;;7.10;5.28;;;;;;;16.45;100.00;93166.88;2093911;28;20141;-88
2021/06/19 01:46:28;;;;;;;6.18;5.18;;;;;;;16.46;100.00;93164.91;2102914;28;20024;-89
2021/06/19 01:47:29;;;;;;;6.40;5.53;;;;;;;16.36;100.00;93156.09;2092554;28;20031;-88
2021/06/19 01:48:30;;;;;;;8.38;5.72;;;;;;;16.33;100.00;93162.38;2093961;28;20564;-87
2021/06/19 01:49:34;;;;;;;7.25;5.38;;;;;;;16.27;100.00;93162.25;2096014;28;20031;-88
2021/06/19 01:50:36;;;;;;;5.60;5.10;;;;;;;16.34;100.00;93167.34;2101373;28;20031;-88
2021/06/19 01:51:37;;;;;;;5.85;5.32;;;;;;;16.25;100.00;93158.50;2100192;28;20572;-87
2021/06/19 01:52:39;;;;;;;5.22;4.75;;;;;;;16.24;100.00;93163.16;2104797;28;20493;-87
2021/06/19 01:53:41;;;;;;;10.40;6.30;;;;;;;16.27;100.00;93161.50;2097597;28;20035;-88
2021/06/19 01:54:41;;;;;;;6.28;5.50;;;;;;;16.28;100.00;93169.13;2093026;28;20059;-88
2021/06/19 01:55:43;;;;;;;6.28;5.68;;;;;;;16.28;100.00;93166.44;2095698;28;20060;-88
2021/06/19 01:56:44;;;;;;;6.13;5.63;;;;;;;16.21;100.00;93168.69;2088008;28;20485;-89
2021/06/19 01:57:46;;;;;;;9.98;5.80;;;;;;;16.18;100.00;93170.34;2096111;28;20055;-88
2021/06/19 01:58:47;;;;;;;10.50;6.20;;;;;;;16.13;100.00;93172.88;2104947;28;20034;-88
2021/06/19 01:59:48;;;;;;;6.85;5.95;;;;;;;16.12;100.00;93169.44;2104201;28;20559;-89
2021/06/19 02:00:48;;;;;;;7.55;5.78;;;;;;;16.11;100.00;93174.09;2094283;28;20446;-89
2021/06/19 02:01:49;;;;;;;6.65;5.65;;;;;;;16.11;100.00;93168.69;2096281;28;20124;-87
2021/06/19 02:02:51;;;;;;;8.00;6.32;;;;;;;16.13;100.00;93167.50;2096190;28;20043;-88
2021/06/19 02:05:49;;;;;;;;;;;;;;;16.09;100.00;93167.63;2144739;27;20121;-87
2021/06/19 02:06:50;;;;;;;8.90;6.18;;;;;;;16.07;100.00;93160.00;2119475;28;20376;-87
2021/06/19 02:07:57;;;;;;;8.35;6.32;;;;;;;16.00;100.00;93162.25;2107069;28;20511;-87
2021/06/19 02:09:07;;;;;;;12.95;6.55;;;;;;;16.04;100.00;93160.91;2113143;27;20445;-88
2021/06/19 02:10:08;;;;;;;11.45;6.47;;;;;;;15.96;100.00;93165.09;2121491;27;20031;-89
2021/06/19 02:11:08;;;;;;;7.75;6.22;;;;;;;16.05;100.00;93169.72;2128223;27;20035;-88
2021/06/19 02:12:10;;;;;;;19.42;6.95;;;;;;;16.04;100.00;93170.94;2120300;28;20020;-89
2021/06/19 02:13:11;;;;;;;20.88;7.35;;;;;;;16.00;100.00;93171.09;2120796;27;20020;-90
2021/06/19 02:14:15;;;;;;;17.52;7.03;;;;;;;15.94;100.00;93177.53;2136760;27;20110;-88
2021/06/19 02:15:17;;;;;;;8.18;6.82;;;;;;;15.97;100.00;93180.06;2120064;28;20020;-88
2021/06/19 02:16:18;;;;;;;9.43;6.97;;;;;;;15.98;100.00;93181.59;2104364;28;20032;-88
2021/06/19 02:17:18;;;;;;;11.88;6.70;;;;;;;16.00;100.00;93187.25;2103750;28;20035;-89
2021/06/19 02:18:20;;;;;;;9.68;6.10;;;;;;;16.03;100.00;93180.22;2113418;28;20051;-87
2021/06/19 02:19:20;;;;;;;7.55;6.85;;;;;;;16.03;100.00;93172.88;2114071;28;20022;-89
2021/06/19 02:20:22;;;;;;;8.07;7.22;;;;;;;15.94;100.00;93172.88;2114081;28;20020;-88
2021/06/19 02:21:23;;;;;;;8.43;6.78;;;;;;;15.87;100.00;93175.88;2113694;27;20016;-88
2021/06/19 02:22:24;;;;;;;10.88;6.78;;;;;;;15.87;100.00;93175.88;2123210;27;20024;-87
2021/06/19 02:23:25;;;;;;;7.45;6.63;;;;;;;15.89;100.00;93176.16;2131690;27;20019;-87
2021/06/19 02:24:26;;;;;;;7.80;6.60;;;;;;;15.84;100.00;93174.81;2122611;27;20106;-89
2021/06/19 02:25:28;;;;;;;5.88;5.30;;;;;;;15.89;100.00;93173.47;2124118;27;20019;-88
2021/06/19 02:26:29;;;;;;;20.58;6.18;;;;;;;15.83;100.00;93170.63;2121140;28;20019;-89
2021/06/19 02:27:30;;;;;;;9.18;6.25;;;;;;;15.85;100.00;93170.94;2103602;28;20025;-90
2021/06/19 02:28:31;;;;;;;8.05;6.50;;;;;;;15.79;100.00;93169.25;2102999;28;20047;-88
2021/06/19 02:29:32;;;;;;;6.45;5.85;;;;;;;15.80;100.00;93171.53;2112169;28;20515;-89
2021/06/19 02:30:38;;;;;;;6.90;6.00;;;;;;;15.80;100.00;93171.53;2111992;28;20030;-88
2021/06/19 02:31:39;;;;;;;8.00;6.32;;;;;;;15.81;100.00;93175.72;2121140;27;20048;-88
2021/06/19 02:32:40;;;;;;;7.25;6.55;;;;;;;15.87;100.00;93181.25;2120184;28;20031;-88
2021/06/19 02:33:41;;;;;;;6.53;6.00;;;;;;;15.81;100.00;93183.81;2103114;28;20470;-88
2021/06/19 02:34:41;;;;;;;6.50;5.88;;;;;;;15.79;100.00;93185.44;2103436;28;20020;-89
2021/06/19 02:35:45;;;;;;;6.90;6.30;;;;;;;15.74;100.00;93189.47;2119317;28;20110;-88
2021/06/19 02:36:46;;;;;;;6.50;5.93;;;;;;;15.73;100.00;93187.22;2120357;27;20466;-89
2021/06/19 02:37:47;;;;;;;5.82;5.28;;;;;;;15.67;100.00;93189.00;2111388;28;20479;-88
2021/06/19 02:38:49;;;;;;;6.45;5.90;;;;;;;15.66;100.00;93188.25;2120119;28;20059;-88
2021/06/19 02:39:49;;;;;;;8.05;5.35;;;;;;;15.64;100.00;93187.97;2110201;28;20443;-91
2021/06/19 02:40:51;;;;;;;6.38;5.78;;;;;;;15.59;100.00;93189.28;2103281;28;20021;-89
2021/06/19 02:41:53;;;;;;;6.47;5.38;;;;;;;15.61;100.00;93184.16;2103654;28;20046;-89
2021/06/19 02:42:54;;;;;;;8.00;6.13;;;;;;;15.59;100.00;93188.53;2118886;27;20023;-88
2021/06/19 02:43:55;;;;;;;7.93;5.65;;;;;;;15.60;100.00;93190.75;2128944;27;20149;-90
2021/06/19 02:44:56;;;;;;;7.20;5.65;;;;;;;15.55;100.00;93187.91;2119935;27;20104;-89
2021/06/19 02:45:59;;;;;;;6.43;5.78;;;;;;;15.47;100.00;93194.78;2121614;27;20426;-89
2021/06/19 02:47:00;;;;;;;6.07;5.57;;;;;;;15.41;100.00;93197.31;2111815;28;20535;-90
2021/06/19 02:48:01;;;;;;;6.93;5.47;;;;;;;15.45;100.00;93197.16;2103481;28;20024;-89
2021/06/19 02:49:02;;;;;;;6.00;5.40;;;;;;;15.42;100.00;93201.50;2104649;28;20052;-89
2021/06/19 02:50:04;;;;;;;5.38;4.95;;;;;;;15.37;100.00;93196.69;2111966;28;20073;-89
2021/06/19 02:51:05;;;;;;;6.82;5.43;;;;;;;15.41;100.00;93199.22;2112569;27;20028;-89
2021/06/19 02:52:05;;;;;;;5.25;4.75;;;;;;;15.43;100.00;93194.16;2112184;28;20106;-89
2021/06/19 02:53:07;;;;;;;11.25;5.72;;;;;;;15.40;100.00;93195.78;2112309;28;20020;-89
2021/06/19 02:54:08;;;;;;;12.15;5.03;;;;;;;15.41;100.00;93201.91;2120320;27;20051;-89
2021/06/19 02:55:12;;;;;;;40.15;6.00;;;;;;;15.41;100.00;93201.91;2120004;28;20058;-88
2021/06/19 02:56:13;;;;;;;66.95;6.65;;;;;;;15.32;100.00;93199.94;2103300;28;20509;-88
2021/06/19 02:57:13;;;;;;;34.47;6.00;;;;;;;15.36;100.00;93203.25;2111356;28;20034;-88
2021/06/19 02:58:15;;;;;;;72.38;6.22;;;;;;;15.35;100.00;93201.75;2111932;28;20024;-89
2021/06/19 02:59:16;;;;;;;50.63;6.15;;;;;;;15.39;100.00;93202.38;2112432;28;20103;-88
2021/06/19 03:00:18;;;;;;;66.45;6.50;;;;;;;15.32;100.00;93208.78;2120162;27;20043;-89
2021/06/19 03:01:19;;;;;;;21.35;5.50;;;;;;;15.36;100.00;93205.94;2129011;27;20027;-88
2021/06/19 03:02:19;;;;;;;46.50;5.50;;;;;;;15.40;100.00;93211.19;2120632;28;20027;-87
2021/06/19 03:03:20;;;;;;;51.15;5.88;;;;;;;15.35;100.00;93207.16;2112020;28;20127;-88
2021/06/19 03:04:21;;;;;;;63.10;6.03;;;;;;;15.33;100.00;93210.28;2103595;28;20111;-88
2021/06/19 03:05:24;;;;;;;109.88;6.88;;;;;;;15.35;100.00;93215.22;2102990;28;20127;-88
2021/06/19 03:06:25;;;;;;;63.80;6.22;;;;;;;15.39;100.00;93215.84;2112584;28;20020;-88
2021/06/19 03:07:26;;;;;;;38.08;5.65;;;;;;;15.43;100.00;93219.16;2119265;28;20026;-89
2021/06/19 03:08:28;;;;;;;31.98;5.32;;;;;;;15.46;100.00;93212.88;2113598;28;20038;-89
2021/06/19 03:09:29;;;;;;;47.13;5.72;;;;;;;15.45;100.00;93211.38;2112300;28;20118;-88
2021/06/19 03:10:32;;;;;;;41.35;5.47;;;;;;;15.43;100.00;93204.94;2103956;28;20469;-88
2021/06/19 03:11:33;;;;;;;43.75;5.50;;;;;;;15.37;100.00;93215.53;2104099;28;20431;-90
2021/06/19 03:12:34;;;;;;;75.22;6.22;;;;;;;15.32;100.00;93205.34;2096445;28;20021;-89
2021/06/19 03:13:35;;;;;;;7.40;4.80;;;;;;;15.29;100.00;93208.94;2111459;28;20054;-88
2021/06/19 03:14:35;;;;;;;7.68;4.28;;;;;;;15.34;100.00;93211.78;2111820;28;20048;-89
2021/06/19 03:15:36;;;;;;;16.65;5.03;;;;;;;15.32;100.00;93213.41;2103997;28;20020;-87
2021/06/19 03:16:37;;;;;;;24.23;5.57;;;;;;;15.32;100.00;93221.50;2101398;28;20020;-88
2021/06/19 03:17:38;;;;;;;28.63;5.30;;;;;;;15.25;100.00;93217.13;2114629;28;20054;-89
2021/06/19 03:18:39;;;;;;;7.55;4.80;;;;;;;15.26;100.00;93213.25;2113532;28;20035;-89
2021/06/19 03:19:39;;;;;;;22.65;5.20;;;;;;;15.26;100.00;93220.56;2106112;28;20056;-90
2021/06/19 03:20:40;;;;;;;6.28;4.53;;;;;;;15.21;100.00;93221.91;2098191;28;20115;-89
2021/06/19 03:21:42;;;;;;;5.03;4.20;;;;;;;15.23;100.00;93216.84;2089842;28;20020;-90
2021/06/19 03:22:55;;;;;;;4.90;4.50;;;;;;;15.27;100.00;93214.75;2106946;28;20024;-89
2021/06/19 03:23:56;;;;;;;18.67;4.80;;;;;;;15.29;100.00;93217.00;2114797;28;20453;-90
2021/06/19 03:24:56;;;;;;;13.35;5.15;;;;;;;15.19;100.00;93216.22;2097677;28;20028;-89
2021/06/19 03:25:57;;;;;;;13.63;4.82;;;;;;;15.25;100.00;93216.41;2089312;28;20029;-89
2021/06/19 03:26:58;;;;;;;27.75;5.30;;;;;;;15.23;100.00;93210.69;2087582;28;20111;-89
2021/06/19 03:28:00;;;;;;;155.00;7.93;;;;;;;15.25;100.00;93222.53;2097844;28;20028;-89
2021/06/19 03:29:01;;;;;;;73.05;6.20;;;;;;;15.22;100.00;93219.97;2106655;28;20372;-89
2021/06/19 03:30:04;;;;;;;11.65;4.88;;;;;;;15.27;100.00;93222.81;2097955;28;20093;-88
2021/06/19 03:31:04;;;;;;;4.93;4.63;;;;;;;15.29;100.00;93217.75;2090062;28;20211;-90
2021/06/19 03:32:06;;;;;;;4.57;4.28;;;;;;;15.28;100.00;93226.28;2098130;28;20484;-90
2021/06/19 03:33:09;;;;;;;4.60;4.30;;;;;;;15.27;100.00;93227.47;2106096;28;20028;-90
2021/06/19 03:34:09;;;;;;;5.30;4.82;;;;;;;15.18;100.00;93230.84;2104360;28;20024;-89
2021/06/19 03:35:11;;;;;;;4.43;4.03;;;;;;;15.15;100.00;93221.00;2098345;28;20022;-90
2021/06/19 03:36:11;;;;;;;4.70;4.40;;;;;;;15.12;100.00;93224.56;2098152;28;20493;-89
2021/06/19 03:37:12;;;;;;;4.32;4.03;;;;;;;15.08;100.00;93229.31;2098087;28;20024;-89
2021/06/19 03:38:13;;;;;;;5.60;4.13;;;;;;;15.09;100.00;93226.19;2099655;28;20463;-90
2021/06/19 03:39:15;;;;;;;4.35;4.05;;;;;;;15.06;100.00;93224.41;2089821;28;20066;-90
2021/06/19 03:40:18;;;;;;;7.93;4.57;;;;;;;15.05;100.00;93219.44;2092549;28;20035;-90
2021/06/19 03:41:19;;;;;;;4.57;4.18;;;;;;;15.07;100.00;93225.88;2094425;28;20070;-90
2021/06/19 03:42:19;;;;;;;4.70;4.38;;;;;;;15.00;100.00;93223.44;2095821;28;20495;-90
2021/06/19 03:43:20;;;;;;;4.97;4.57;;;;;;;15.00;100.00;93228.09;2089818;28;20027;-90
2021/06/19 03:44:22;;;;;;;7.15;4.93;;;;;;;15.06;100.00;93227.09;2089906;28;20111;-91
2021/06/19 03:45:29;;;;;;;8.23;4.75;;;;;;;15.16;100.00;93232.50;2105998;28;20107;-90
2021/06/19 03:46:30;;;;;;;4.63;4.28;;;;;;;15.06;100.00;93237.09;2105237;28;20452;-90
2021/06/19 03:47:31;;;;;;;6.93;4.68;;;;;;;15.06;100.00;93237.09;2106773;28;20020;-90
2021/06/19 03:48:31;;;;;;;14.82;5.65;;;;;;;15.07;100.00;93233.22;2111724;28;20023;-90
2021/06/19 03:49:32;;;;;;;6.53;5.25;;;;;;;15.09;100.00;93236.19;2103277;28;20031;-89
2021/06/19 03:50:33;;;;;;;5.22;4.72;;;;;;;15.14;100.00;93232.19;2104359;28;20035;-91
2021/06/19 03:51:34;;;;;;;5.05;4.65;;;;;;;15.08;100.00;93232.03;2113076;28;20035;-89
2021/06/19 03:52:35;;;;;;;5.25;4.85;;;;;;;15.10;100.00;93233.09;2097000;28;20079;-89
2021/06/19 03:53:35;;;;;;;5.95;5.00;;;;;;;15.15;100.00;93228.31;2095677;28;20056;-89
2021/06/19 03:54:37;;;;;;;5.43;5.00;;;;;;;15.17;100.00;93228.63;2106611;28;20469;-88
2021/06/19 03:55:38;;;;;;;5.63;5.13;;;;;;;15.17;100.00;93226.69;2098218;28;20086;-89
2021/06/19 03:56:39;;;;;;;7.57;5.00;;;;;;;15.20;100.00;93225.81;2098289;28;20063;-88
2021/06/19 03:57:41;;;;;;;5.20;4.70;;;;;;;15.16;100.00;93219.78;2097382;28;20032;-89
2021/06/19 03:58:42;;;;;;;5.13;4.72;;;;;;;15.15;100.00;93218.31;2098327;28;20493;-90
2021/06/19 03:59:42;;;;;;;4.95;4.47;;;;;;;15.15;100.00;93218.31;2089827;28;20021;-92
2021/06/19 04:00:43;;;;;;;4.88;4.57;;;;;;;15.14;100.00;93221.41;2089688;28;20035;-89
2021/06/19 04:01:44;;;;;;;8.05;4.50;;;;;;;15.08;100.00;93208.53;2089784;28;20052;-90
2021/06/19 04:02:45;;;;;;;5.45;5.05;;;;;;;15.10;100.00;93213.47;2085184;28;20024;-91
2021/06/19 04:03:45;;;;;;;6.78;4.47;;;;;;;15.14;100.00;93213.34;2092060;28;20043;-91
2021/06/19 04:04:47;;;;;;;5.05;4.75;;;;;;;15.10;100.00;93218.84;2091896;28;20410;-91
2021/06/19 04:05:48;;;;;;;5.72;4.82;;;;;;;15.18;100.00;93217.41;2089795;28;20047;-89
2021/06/19 04:06:48;;;;;;;6.18;4.55;;;;;;;15.23;100.00;93222.22;2089893;28;20100;-90
2021/06/19 04:07:49;;;;;;;5.13;4.55;;;;;;;15.24;100.00;93222.97;2098189;28;20035;-90
2021/06/19 04:08:51;;;;;;;4.70;4.30;;;;;;;15.23;100.00;93221.44;2097994;28;20043;-89
2021/06/19 04:09:53;;;;;;;5.50;4.20;;;;;;;15.29;100.00;93225.84;2090032;28;20448;-89
2021/06/19 04:10:53;;;;;;;4.40;3.97;;;;;;;15.31;100.00;93220.75;2098396;28;20465;-90
2021/06/19 04:11:54;;;;;;;4.60;4.15;;;;;;;15.30;100.00;93221.19;2098038;28;20028;-89
2021/06/19 04:12:55;;;;;;;4.43;4.13;;;;;;;15.33;100.00;93225.72;2089329;28;20429;-89
2021/06/19 04:13:55;;;;;;;4.53;4.18;;;;;;;15.30;100.00;93216.56;2103144;28;20027;-89
2021/06/19 04:14:56;;;;;;;4.57;4.18;;;;;;;15.25;100.00;93219.84;2102490;28;20028;-89
2021/06/19 04:15:57;;;;;;;4.35;3.95;;;;;;;15.30;100.00;93223.88;2095889;28;20059;-89
2021/06/19 04:16:58;;;;;;;5.00;4.63;;;;;;;15.35;100.00;93228.69;2094860;28;20024;-89
2021/06/19 04:17:58;;;;;;;5.15;4.70;;;;;;;15.30;100.00;93232.72;2098084;28;20178;-89
2021/06/19 04:18:59;;;;;;;5.00;4.53;;;;;;;15.36;100.00;93227.50;2106042;28;20020;-90
2021/06/19 04:20:00;;;;;;;5.57;4.75;;;;;;;15.33;100.00;93233.78;2097994;28;20496;-90
2021/06/19 04:21:00;;;;;;;5.28;4.88;;;;;;;15.43;100.00;93231.88;2106530;28;20032;-90
2021/06/19 04:22:03;;;;;;;5.30;4.85;;;;;;;15.44;100.00;93234.13;2097644;28;20091;-91
2021/06/19 04:23:04;;;;;;;5.00;4.60;;;;;;;15.51;100.00;93247.31;2098098;28;20032;-89
2021/06/19 04:24:05;;;;;;;5.15;4.47;;;;;;;15.52;100.00;93240.72;2106111;28;20093;-89
2021/06/19 04:25:07;;;;;;;5.18;4.78;;;;;;;15.51;100.00;93239.25;2101129;28;20072;-87
2021/06/19 04:26:08;;;;;;;5.25;4.72;;;;;;;15.53;100.00;93244.16;2103867;28;20027;-89
2021/06/19 04:27:18;;;;;;;5.32;4.82;;;;;;;15.56;100.00;93244.03;2099802;28;20305;-88
2021/06/19 04:28:19;;;;;;;5.43;4.80;;;;;;;15.57;100.00;93247.47;2098639;28;20028;-90
2021/06/19 04:29:19;;;;;;;5.25;4.75;;;;;;;15.60;100.00;93247.34;2097363;28;20028;-89
2021/06/19 04:30:22;;;;;;;5.28;4.88;;;;;;;15.59;100.00;93242.41;2094628;28;20703;-89
2021/06/19 04:31:22;;;;;;;6.00;5.00;;;;;;;15.64;100.00;93251.84;2098188;28;20170;-90
2021/06/19 04:32:24;;;;;;;5.43;4.93;;;;;;;15.68;100.00;93247.84;2104593;28;20513;-90
2021/06/19 04:33:25;;;;;;;5.53;5.03;;;;;;;15.73;100.00;93251.91;2095733;28;20058;-89
2021/06/19 04:34:26;;;;;;;7.13;5.30;;;;;;;15.78;100.00;93249.38;2098075;28;20510;-89
2021/06/19 04:35:27;;;;;;;5.90;5.30;;;;;;;15.82;100.00;93257.31;2104344;28;20107;-87
2021/06/19 04:36:28;;;;;;;5.63;5.22;;;;;;;15.86;100.00;93255.25;2095003;28;20492;-90
2021/06/19 04:37:29;;;;;;;7.57;5.60;;;;;;;15.88;100.00;93260.94;2097844;28;20485;-89
2021/06/19 04:38:30;;;;;;;6.45;5.60;;;;;;;15.89;100.00;93250.88;2106019;28;20052;-89
2021/06/19 04:39:30;;;;;;;7.57;5.47;;;;;;;15.96;100.00;93250.63;2104110;28;20031;-89
2021/06/19 04:42:07;;;;;;;5.25;4.72;;;;;;;16.04;100.00;93247.19;2072425;28;20041;-89
2021/06/19 04:43:10;;;;;;;7.68;5.78;;;;;;;16.04;100.00;93247.19;2089215;28;20040;-91
2021/06/19 04:44:27;;;;;;;5.90;5.40;;;;;;;16.07;100.00;93240.91;2106341;27;20103;-88
2021/06/19 04:45:29;;;;;;;5.93;5.30;;;;;;;16.06;100.00;93244.78;2114382;28;20027;-87
2021/06/19 04:46:29;;;;;;;6.13;5.53;;;;;;;16.10;100.00;93250.03;2097826;28;20024;-89
2021/06/19 04:47:34;;;;;;;7.00;5.80;;;;;;;16.16;100.00;93259.03;2089175;28;20493;-90
2021/06/19 04:48:35;;;;;;;7.03;6.10;;;;;;;16.14;100.00;93249.91;2103611;28;20107;-90
2021/06/19 04:49:36;;;;;;;6.60;5.15;;;;;;;16.17;100.00;93252.44;2105309;28;20039;-90